sensor_id;sensor_type;location;lat;lon;timestamp;pressure;altitude;pressure_sealevel;temperature;humidity
8334;BME280;4204;43.004;23.052;2022-11-21T00:01:00;92518.84;;;11.07;100.00
8334;BME280;4204;43.004;23.052;2022-11-21T00:03:29;92547.97;;;11.00;100.00
8334;BME280;4204;43.004;23.052;2022-11-21T00:05:57;92556.19;;;10.95;100.00
8334;BME280;4204;43.004;23.052;2022-11-21T00:08:24;92553.72;;;11.02;100.00
8334;BME280;4204;43.004;23.052;2022-11-21T00:10:52;92536.63;;;11.03;100.00
8334;BME280;4204;43.004;23.052;2022-11-21T00:13:20;92528.44;;;11.12;100.00
8334;BME280;4204;43.004;23.052;2022-11-21T00:15:47;92532.38;;;11.18;100.00
8334;BME280;4204;43.004;23.052;2022-11-21T00:18:15;92514.47;;;11.15;100.00
8334;BME280;4204;43.004;23.052;2022-11-21T00:20:44;92508.25;;;11.26;100.00
8334;BME280;4204;43.004;23.052;2022-11-21T00:23:12;92504.91;;;11.49;100.00
8334;BME280;4204;43.004;23.052;2022-11-21T00:25:39;92488.84;;;11.45;100.00
8334;BME280;4204;43.004;23.052;2022-11-21T00:28:07;92467.13;;;11.43;100.00
8334;BME280;4204;43.004;23.052;2022-11-21T00:30:35;92490.09;;;11.32;100.00
8334;BME280;4204;43.004;23.052;2022-11-21T00:33:03;92489.56;;;11.42;100.00
8334;BME280;4204;43.004;23.052;2022-11-21T00:35:30;92496.84;;;11.45;100.00
8334;BME280;4204;43.004;23.052;2022-11-21T00:38:00;92477.44;;;11.45;100.00
8334;BME280;4204;43.004;23.052;2022-11-21T00:40:27;92471.13;;;11.53;100.00
8334;BME280;4204;43.004;23.052;2022-11-21T00:42:55;92458.09;;;11.48;100.00
8334;BME280;4204;43.004;23.052;2022-11-21T00:45:23;92457.81;;;11.53;100.00
8334;BME280;4204;43.004;23.052;2022-11-21T00:47:50;92458.03;;;11.44;100.00
8334;BME280;4204;43.004;23.052;2022-11-21T00:50:18;92451.22;;;11.47;100.00
8334;BME280;4204;43.004;23.052;2022-11-21T00:52:46;92450.53;;;11.50;100.00
8334;BME280;4204;43.004;23.052;2022-11-21T00:55:15;92461.59;;;11.52;100.00
8334;BME280;4204;43.004;23.052;2022-11-21T00:57:43;92469.59;;;11.52;100.00
8334;BME280;4204;43.004;23.052;2022-11-21T01:00:12;92482.34;;;11.43;100.00
8334;BME280;4204;43.004;23.052;2022-11-21T01:02:39;92469.44;;;11.45;100.00
8334;BME280;4204;43.004;23.052;2022-11-21T01:05:08;92459.63;;;11.49;100.00
8334;BME280;4204;43.004;23.052;2022-11-21T01:07:35;92459.56;;;11.45;100.00
8334;BME280;4204;43.004;23.052;2022-11-21T01:10:04;92463.00;;;11.46;100.00
8334;BME280;4204;43.004;23.052;2022-11-21T01:12:33;92445.78;;;11.39;100.00
8334;BME280;4204;43.004;23.052;2022-11-21T01:15:01;92447.88;;;11.30;100.00
8334;BME280;4204;43.004;23.052;2022-11-21T01:17:31;92459.22;;;11.66;100.00
8334;BME280;4204;43.004;23.052;2022-11-21T01:19:58;92443.38;;;11.34;100.00
8334;BME280;4204;43.004;23.052;2022-11-21T01:22:26;92456.75;;;11.38;100.00
8334;BME280;4204;43.004;23.052;2022-11-21T01:24:54;92447.81;;;11.46;100.00
8334;BME280;4204;43.004;23.052;2022-11-21T01:27:22;92447.56;;;11.55;100.00
8334;BME280;4204;43.004;23.052;2022-11-21T01:29:51;92442.97;;;11.52;100.00
8334;BME280;4204;43.004;23.052;2022-11-21T01:32:18;92433.84;;;11.53;100.00
8334;BME280;4204;43.004;23.052;2022-11-21T01:34:46;92440.44;;;11.59;100.00
8334;BME280;4204;43.004;23.052;2022-11-21T01:37:14;92444.06;;;11.51;100.00
8334;BME280;4204;43.004;23.052;2022-11-21T01:39:41;92445.91;;;11.47;100.00
8334;BME280;4204;43.004;23.052;2022-11-21T01:42:11;92435.19;;;11.43;100.00
8334;BME280;4204;43.004;23.052;2022-11-21T01:44:47;92437.59;;;11.48;100.00
8334;BME280;4204;43.004;23.052;2022-11-21T01:47:17;92434.84;;;11.45;100.00
8334;BME280;4204;43.004;23.052;2022-11-21T01:49:45;92435.66;;;11.49;100.00
8334;BME280;4204;43.004;23.052;2022-11-21T01:52:16;92426.50;;;11.46;100.00
8334;BME280;4204;43.004;23.052;2022-11-21T01:54:48;92431.47;;;11.48;100.00
8334;BME280;4204;43.004;23.052;2022-11-21T01:57:21;92427.25;;;11.47;100.00
8334;BME280;4204;43.004;23.052;2022-11-21T01:59:54;92418.16;;;11.48;100.00
8334;BME280;4204;43.004;23.052;2022-11-21T02:02:28;92421.66;;;11.52;100.00
8334;BME280;4204;43.004;23.052;2022-11-21T02:04:59;92414.31;;;11.45;100.00
8334;BME280;4204;43.004;23.052;2022-11-21T02:07:29;92393.78;;;11.46;100.00
8334;BME280;4204;43.004;23.052;2022-11-21T02:10:00;92400.63;;;11.66;100.00
8334;BME280;4204;43.004;23.052;2022-11-21T02:12:34;92393.75;;;11.84;100.00
8334;BME280;4204;43.004;23.052;2022-11-21T02:15:05;92451.34;;;11.92;100.00
8334;BME280;4204;43.004;23.052;2022-11-21T02:17:35;92478.22;;;11.64;100.00
8334;BME280;4204;43.004;23.052;2022-11-21T02:20:04;92489.66;;;11.30;100.00
8334;BME280;4204;43.004;23.052;2022-11-21T02:22:38;92493.09;;;11.11;100.00
8334;BME280;4204;43.004;23.052;2022-11-21T02:25:13;92489.31;;;10.31;100.00
8334;BME280;4204;43.004;23.052;2022-11-21T02:27:41;92497.13;;;9.81;100.00
8334;BME280;4204;43.004;23.052;2022-11-21T02:30:10;92493.34;;;9.54;100.00
8334;BME280;4204;43.004;23.052;2022-11-21T02:32:40;92485.22;;;9.62;100.00
8334;BME280;4204;43.004;23.052;2022-11-21T02:35:08;92485.06;;;9.55;100.00
8334;BME280;4204;43.004;23.052;2022-11-21T02:37:36;92492.38;;;9.46;100.00
8334;BME280;4204;43.004;23.052;2022-11-21T02:40:08;92500.88;;;9.52;100.00
8334;BME280;4204;43.004;23.052;2022-11-21T02:42:42;92482.16;;;9.60;100.00
8334;BME280;4204;43.004;23.052;2022-11-21T02:45:15;92499.50;;;9.86;100.00
8334;BME280;4204;43.004;23.052;2022-11-21T02:47:45;92494.56;;;10.00;100.00
8334;BME280;4204;43.004;23.052;2022-11-21T02:50:19;92484.44;;;10.17;100.00
8334;BME280;4204;43.004;23.052;2022-11-21T02:52:50;92476.91;;;10.19;100.00
8334;BME280;4204;43.004;23.052;2022-11-21T02:55:18;92475.72;;;10.05;100.00
8334;BME280;4204;43.004;23.052;2022-11-21T02:57:47;92473.41;;;9.88;100.00
8334;BME280;4204;43.004;23.052;2022-11-21T03:00:15;92451.88;;;9.77;100.00
8334;BME280;4204;43.004;23.052;2022-11-21T03:02:43;92460.75;;;9.69;100.00
8334;BME280;4204;43.004;23.052;2022-11-21T03:05:14;92443.63;;;9.66;100.00
8334;BME280;4204;43.004;23.052;2022-11-21T03:07:42;92440.50;;;9.76;100.00
8334;BME280;4204;43.004;23.052;2022-11-21T03:10:10;92457.81;;;9.86;100.00
8334;BME280;4204;43.004;23.052;2022-11-21T03:12:39;92454.28;;;9.82;100.00
8334;BME280;4204;43.004;23.052;2022-11-21T03:15:11;92441.19;;;9.89;100.00
8334;BME280;4204;43.004;23.052;2022-11-21T03:17:39;92456.44;;;10.08;100.00
8334;BME280;4204;43.004;23.052;2022-11-21T03:20:08;92449.31;;;10.24;100.00
8334;BME280;4204;43.004;23.052;2022-11-21T03:22:35;92463.34;;;10.40;100.00
8334;BME280;4204;43.004;23.052;2022-11-21T03:25:04;92459.84;;;10.36;100.00
8334;BME280;4204;43.004;23.052;2022-11-21T03:27:31;92460.34;;;10.26;100.00
8334;BME280;4204;43.004;23.052;2022-11-21T03:29:59;92456.66;;;10.15;100.00
8334;BME280;4204;43.004;23.052;2022-11-21T03:32:28;92443.38;;;10.15;100.00
8334;BME280;4204;43.004;23.052;2022-11-21T03:34:56;92445.31;;;10.02;100.00
8334;BME280;4204;43.004;23.052;2022-11-21T03:37:24;92457.34;;;10.12;100.00
8334;BME280;4204;43.004;23.052;2022-11-21T03:39:51;92468.19;;;10.07;100.00
8334;BME280;4204;43.004;23.052;2022-11-21T03:42:19;92467.41;;;10.06;100.00
8334;BME280;4204;43.004;23.052;2022-11-21T03:44:47;92453.72;;;10.04;100.00
8334;BME280;4204;43.004;23.052;2022-11-21T03:47:14;92441.44;;;9.84;100.00
8334;BME280;4204;43.004;23.052;2022-11-21T03:49:43;92451.34;;;9.71;100.00
8334;BME280;4204;43.004;23.052;2022-11-21T03:52:11;92468.59;;;9.50;100.00
8334;BME280;4204;43.004;23.052;2022-11-21T03:54:39;92463.25;;;9.62;100.00
8334;BME280;4204;43.004;23.052;2022-11-21T03:57:06;92467.78;;;9.61;100.00
8334;BME280;4204;43.004;23.052;2022-11-21T03:59:34;92475.69;;;9.46;100.00
8334;BME280;4204;43.004;23.052;2022-11-21T04:02:02;92474.63;;;9.35;100.00
8334;BME280;4204;43.004;23.052;2022-11-21T04:04:29;92461.50;;;9.26;100.00
8334;BME280;4204;43.004;23.052;2022-11-21T04:06:58;92460.97;;;9.21;100.00
8334;BME280;4204;43.004;23.052;2022-11-21T04:09:26;92482.91;;;9.06;100.00
8334;BME280;4204;43.004;23.052;2022-11-21T04:11:54;92490.00;;;8.65;100.00
8334;BME280;4204;43.004;23.052;2022-11-21T04:14:21;92484.06;;;8.56;100.00
8334;BME280;4204;43.004;23.052;2022-11-21T04:16:49;92489.03;;;8.46;100.00
8334;BME280;4204;43.004;23.052;2022-11-21T04:19:17;92475.09;;;8.49;100.00
8334;BME280;4204;43.004;23.052;2022-11-21T04:21:44;92485.72;;;8.49;100.00
8334;BME280;4204;43.004;23.052;2022-11-21T04:24:14;92482.75;;;8.50;100.00
8334;BME280;4204;43.004;23.052;2022-11-21T04:26:41;92485.16;;;8.31;100.00
8334;BME280;4204;43.004;23.052;2022-11-21T04:29:09;92500.00;;;8.11;100.00
8334;BME280;4204;43.004;23.052;2022-11-21T04:31:37;92505.81;;;8.05;100.00
8334;BME280;4204;43.004;23.052;2022-11-21T04:34:05;92507.94;;;7.99;100.00
8334;BME280;4204;43.004;23.052;2022-11-21T04:36:32;92508.63;;;8.08;100.00
8334;BME280;4204;43.004;23.052;2022-11-21T04:39:00;92509.38;;;8.09;100.00
8334;BME280;4204;43.004;23.052;2022-11-21T04:41:29;92513.03;;;8.04;100.00
8334;BME280;4204;43.004;23.052;2022-11-21T04:43:57;92516.13;;;8.06;100.00
8334;BME280;4204;43.004;23.052;2022-11-21T04:46:24;92534.66;;;8.06;100.00
8334;BME280;4204;43.004;23.052;2022-11-21T04:48:52;92520.03;;;7.88;100.00
8334;BME280;4204;43.004;23.052;2022-11-21T04:51:20;92519.38;;;7.91;100.00
8334;BME280;4204;43.004;23.052;2022-11-21T04:53:47;92535.38;;;7.95;100.00
8334;BME280;4204;43.004;23.052;2022-11-21T04:56:15;92545.75;;;7.88;100.00
8334;BME280;4204;43.004;23.052;2022-11-21T04:58:44;92554.25;;;7.93;100.00
8334;BME280;4204;43.004;23.052;2022-11-21T05:01:12;92538.59;;;8.00;100.00
8334;BME280;4204;43.004;23.052;2022-11-21T05:03:39;92550.88;;;7.84;100.00
8334;BME280;4204;43.004;23.052;2022-11-21T05:06:07;92545.25;;;7.74;100.00
8334;BME280;4204;43.004;23.052;2022-11-21T05:08:35;92551.81;;;7.68;100.00
8334;BME280;4204;43.004;23.052;2022-11-21T05:11:03;92577.38;;;7.64;100.00
8334;BME280;4204;43.004;23.052;2022-11-21T05:13:51;92555.38;;;7.51;100.00
8334;BME280;4204;43.004;23.052;2022-11-21T05:16:19;92575.13;;;7.74;100.00
8334;BME280;4204;43.004;23.052;2022-11-21T05:18:47;92577.31;;;7.72;100.00
8334;BME280;4204;43.004;23.052;2022-11-21T05:21:14;92587.72;;;7.77;100.00
8334;BME280;4204;43.004;23.052;2022-11-21T05:23:42;92575.97;;;7.66;100.00
8334;BME280;4204;43.004;23.052;2022-11-21T05:26:10;92586.06;;;7.52;100.00
8334;BME280;4204;43.004;23.052;2022-11-21T05:28:37;92586.84;;;7.32;100.00
8334;BME280;4204;43.004;23.052;2022-11-21T05:31:06;92592.41;;;7.30;100.00
8334;BME280;4204;43.004;23.052;2022-11-21T05:33:34;92600.44;;;7.22;100.00
8334;BME280;4204;43.004;23.052;2022-11-21T05:36:02;92591.63;;;7.39;100.00
8334;BME280;4204;43.004;23.052;2022-11-21T05:38:30;92591.84;;;7.46;100.00
8334;BME280;4204;43.004;23.052;2022-11-21T05:40:57;92605.81;;;7.55;100.00
8334;BME280;4204;43.004;23.052;2022-11-21T05:43:25;92610.69;;;7.65;100.00
8334;BME280;4204;43.004;23.052;2022-11-21T05:46:15;92613.75;;;7.55;100.00
8334;BME280;4204;43.004;23.052;2022-11-21T05:48:43;92621.00;;;7.37;100.00
8334;BME280;4204;43.004;23.052;2022-11-21T05:51:12;92636.25;;;7.40;100.00
8334;BME280;4204;43.004;23.052;2022-11-21T05:53:40;92649.66;;;7.35;100.00
8334;BME280;4204;43.004;23.052;2022-11-21T05:56:09;92648.38;;;7.12;100.00
8334;BME280;4204;43.004;23.052;2022-11-21T05:58:37;92639.94;;;7.18;100.00
8334;BME280;4204;43.004;23.052;2022-11-21T06:01:07;92657.22;;;7.16;100.00
8334;BME280;4204;43.004;23.052;2022-11-21T06:03:37;92650.38;;;7.15;100.00
8334;BME280;4204;43.004;23.052;2022-11-21T06:06:06;92657.88;;;7.13;100.00
8334;BME280;4204;43.004;23.052;2022-11-21T06:08:36;92674.94;;;7.24;100.00
8334;BME280;4204;43.004;23.052;2022-11-21T06:11:05;92679.63;;;7.10;100.00
8334;BME280;4204;43.004;23.052;2022-11-21T06:13:34;92689.44;;;7.18;100.00
8334;BME280;4204;43.004;23.052;2022-11-21T06:16:04;92700.06;;;7.01;100.00
8334;BME280;4204;43.004;23.052;2022-11-21T06:18:33;92697.13;;;6.94;100.00
8334;BME280;4204;43.004;23.052;2022-11-21T06:21:05;92704.25;;;7.02;100.00
8334;BME280;4204;43.004;23.052;2022-11-21T06:23:34;92701.56;;;7.10;100.00
8334;BME280;4204;43.004;23.052;2022-11-21T06:26:04;92700.09;;;7.30;100.00
8334;BME280;4204;43.004;23.052;2022-11-21T06:28:33;92715.63;;;7.31;100.00
8334;BME280;4204;43.004;23.052;2022-11-21T06:31:02;92727.97;;;7.19;100.00
8334;BME280;4204;43.004;23.052;2022-11-21T06:33:30;92735.84;;;6.98;100.00
8334;BME280;4204;43.004;23.052;2022-11-21T06:36:00;92742.53;;;6.96;100.00
8334;BME280;4204;43.004;23.052;2022-11-21T06:38:32;92746.28;;;6.95;100.00
8334;BME280;4204;43.004;23.052;2022-11-21T06:41:03;92746.75;;;6.88;100.00
8334;BME280;4204;43.004;23.052;2022-11-21T06:43:31;92751.47;;;6.74;100.00
8334;BME280;4204;43.004;23.052;2022-11-21T06:45:59;92757.09;;;6.56;100.00
8334;BME280;4204;43.004;23.052;2022-11-21T06:48:28;92764.88;;;6.35;100.00
8334;BME280;4204;43.004;23.052;2022-11-21T06:50:56;92761.00;;;6.32;100.00
8334;BME280;4204;43.004;23.052;2022-11-21T06:53:24;92770.75;;;6.32;100.00
8334;BME280;4204;43.004;23.052;2022-11-21T06:55:57;92765.34;;;6.28;100.00
8334;BME280;4204;43.004;23.052;2022-11-21T06:58:25;92784.44;;;6.25;100.00
8334;BME280;4204;43.004;23.052;2022-11-21T07:00:53;92783.81;;;6.28;100.00
8334;BME280;4204;43.004;23.052;2022-11-21T07:03:21;92784.88;;;6.19;100.00
8334;BME280;4204;43.004;23.052;2022-11-21T07:05:49;92791.41;;;6.21;100.00
8334;BME280;4204;43.004;23.052;2022-11-21T07:08:17;92795.47;;;6.27;100.00
8334;BME280;4204;43.004;23.052;2022-11-21T07:10:45;92810.06;;;6.33;100.00
8334;BME280;4204;43.004;23.052;2022-11-21T07:13:14;92812.09;;;6.36;100.00
8334;BME280;4204;43.004;23.052;2022-11-21T07:15:48;92800.75;;;6.27;100.00
8334;BME280;4204;43.004;23.052;2022-11-21T07:18:17;92805.41;;;6.30;100.00
8334;BME280;4204;43.004;23.052;2022-11-21T07:20:45;92800.75;;;6.10;100.00
8334;BME280;4204;43.004;23.052;2022-11-21T07:23:14;92820.28;;;6.09;100.00
8334;BME280;4204;43.004;23.052;2022-11-21T07:25:42;92831.78;;;6.13;100.00
8334;BME280;4204;43.004;23.052;2022-11-21T07:28:10;92841.09;;;6.11;100.00
8334;BME280;4204;43.004;23.052;2022-11-21T07:30:39;92827.28;;;6.05;100.00
8334;BME280;4204;43.004;23.052;2022-11-21T07:33:07;92825.81;;;5.82;100.00
8334;BME280;4204;43.004;23.052;2022-11-21T07:35:35;92827.91;;;5.63;100.00
8334;BME280;4204;43.004;23.052;2022-11-21T07:38:03;92850.28;;;5.65;100.00
8334;BME280;4204;43.004;23.052;2022-11-21T07:40:31;92853.34;;;5.59;100.00
8334;BME280;4204;43.004;23.052;2022-11-21T07:43:00;92850.72;;;5.59;100.00
8334;BME280;4204;43.004;23.052;2022-11-21T07:45:29;92853.38;;;5.67;100.00
8334;BME280;4204;43.004;23.052;2022-11-21T07:47:59;92852.91;;;5.65;100.00
8334;BME280;4204;43.004;23.052;2022-11-21T07:50:27;92866.41;;;5.64;100.00
8334;BME280;4204;43.004;23.052;2022-11-21T07:52:59;92865.03;;;5.66;100.00
8334;BME280;4204;43.004;23.052;2022-11-21T07:55:27;92871.06;;;5.67;100.00
8334;BME280;4204;43.004;23.052;2022-11-21T07:57:59;92866.13;;;5.74;100.00
8334;BME280;4204;43.004;23.052;2022-11-21T08:00:29;92868.06;;;5.51;100.00
8334;BME280;4204;43.004;23.052;2022-11-21T08:02:58;92876.06;;;5.68;100.00
8334;BME280;4204;43.004;23.052;2022-11-21T08:05:26;92868.50;;;5.45;100.00
8334;BME280;4204;43.004;23.052;2022-11-21T08:07:54;92886.47;;;5.43;100.00
8334;BME280;4204;43.004;23.052;2022-11-21T08:10:22;92890.69;;;5.44;100.00
8334;BME280;4204;43.004;23.052;2022-11-21T08:12:49;92887.47;;;5.55;100.00
8334;BME280;4204;43.004;23.052;2022-11-21T08:15:17;92895.81;;;5.49;100.00
8334;BME280;4204;43.004;23.052;2022-11-21T08:17:45;92897.59;;;5.62;100.00
8334;BME280;4204;43.004;23.052;2022-11-21T08:20:14;92888.94;;;5.70;100.00
8334;BME280;4204;43.004;23.052;2022-11-21T08:22:42;92894.81;;;5.67;100.00
8334;BME280;4204;43.004;23.052;2022-11-21T08:25:10;92899.94;;;5.72;100.00
8334;BME280;4204;43.004;23.052;2022-11-21T08:27:39;92903.53;;;5.76;100.00
8334;BME280;4204;43.004;23.052;2022-11-21T08:30:09;92906.66;;;5.78;100.00
8334;BME280;4204;43.004;23.052;2022-11-21T08:32:37;92921.41;;;5.79;100.00
8334;BME280;4204;43.004;23.052;2022-11-21T08:35:05;92920.16;;;5.77;100.00
8334;BME280;4204;43.004;23.052;2022-11-21T08:37:35;92924.16;;;5.74;100.00
8334;BME280;4204;43.004;23.052;2022-11-21T08:40:03;92928.63;;;5.65;100.00
8334;BME280;4204;43.004;23.052;2022-11-21T08:42:31;92931.34;;;5.51;100.00
8334;BME280;4204;43.004;23.052;2022-11-21T08:45:00;92929.34;;;5.57;100.00
8334;BME280;4204;43.004;23.052;2022-11-21T08:47:28;92925.97;;;5.56;100.00
8334;BME280;4204;43.004;23.052;2022-11-21T08:49:58;92931.03;;;5.53;100.00
8334;BME280;4204;43.004;23.052;2022-11-21T08:52:26;92934.91;;;5.47;100.00
8334;BME280;4204;43.004;23.052;2022-11-21T08:54:56;92950.47;;;5.57;100.00
8334;BME280;4204;43.004;23.052;2022-11-21T08:57:23;92945.53;;;5.64;100.00
8334;BME280;4204;43.004;23.052;2022-11-21T08:59:51;92946.75;;;5.58;100.00
8334;BME280;4204;43.004;23.052;2022-11-21T09:02:18;92959.16;;;5.57;100.00
8334;BME280;4204;43.004;23.052;2022-11-21T09:04:46;92954.03;;;5.52;100.00
8334;BME280;4204;43.004;23.052;2022-11-21T09:07:14;92963.47;;;5.53;100.00
8334;BME280;4204;43.004;23.052;2022-11-21T09:09:42;92956.16;;;5.50;100.00
8334;BME280;4204;43.004;23.052;2022-11-21T09:12:11;92961.75;;;5.49;100.00
8334;BME280;4204;43.004;23.052;2022-11-21T09:14:38;92944.31;;;5.39;100.00
8334;BME280;4204;43.004;23.052;2022-11-21T09:17:24;92942.63;;;5.43;100.00
8334;BME280;4204;43.004;23.052;2022-11-21T09:20:23;92949.03;;;5.51;100.00
8334;BME280;4204;43.004;23.052;2022-11-21T09:22:51;92947.44;;;5.41;100.00
8334;BME280;4204;43.004;23.052;2022-11-21T09:25:19;92946.53;;;5.46;100.00
8334;BME280;4204;43.004;23.052;2022-11-21T09:27:48;92927.41;;;5.40;100.00
8334;BME280;4204;43.004;23.052;2022-11-21T09:30:15;92934.56;;;5.40;100.00
8334;BME280;4204;43.004;23.052;2022-11-21T09:32:43;92941.53;;;5.36;100.00
8334;BME280;4204;43.004;23.052;2022-11-21T09:35:11;92940.44;;;5.37;100.00
8334;BME280;4204;43.004;23.052;2022-11-21T09:37:39;92944.50;;;5.43;100.00
8334;BME280;4204;43.004;23.052;2022-11-21T09:40:11;92937.69;;;5.42;100.00
8334;BME280;4204;43.004;23.052;2022-11-21T09:45:40;92936.78;;;5.55;100.00
8334;BME280;4204;43.004;23.052;2022-11-21T09:48:14;92951.75;;;5.68;100.00
8334;BME280;4204;43.004;23.052;2022-11-21T09:50:47;92943.06;;;5.67;100.00
8334;BME280;4204;43.004;23.052;2022-11-21T09:53:18;92947.56;;;5.67;100.00
8334;BME280;4204;43.004;23.052;2022-11-21T09:55:50;92944.22;;;5.75;100.00
8334;BME280;4204;43.004;23.052;2022-11-21T09:58:23;92949.34;;;5.80;100.00
8334;BME280;4204;43.004;23.052;2022-11-21T10:00:54;92954.28;;;5.82;100.00
8334;BME280;4204;43.004;23.052;2022-11-21T10:03:24;92943.47;;;5.83;100.00
8334;BME280;4204;43.004;23.052;2022-11-21T10:05:55;92945.44;;;5.78;100.00
8334;BME280;4204;43.004;23.052;2022-11-21T10:08:32;92946.75;;;5.58;100.00
8334;BME280;4204;43.004;23.052;2022-11-21T10:11:10;92947.34;;;5.55;100.00
8334;BME280;4204;43.004;23.052;2022-11-21T10:13:52;92936.63;;;5.51;100.00
8334;BME280;4204;43.004;23.052;2022-11-21T10:16:27;92934.19;;;5.33;100.00
8334;BME280;4204;43.004;23.052;2022-11-21T10:19:24;92933.13;;;5.34;100.00
8334;BME280;4204;43.004;23.052;2022-11-21T10:22:22;92932.88;;;5.44;100.00
8334;BME280;4204;43.004;23.052;2022-11-21T10:24:55;92931.34;;;5.51;100.00
8334;BME280;4204;43.004;23.052;2022-11-21T10:27:31;92909.63;;;5.46;100.00
8334;BME280;4204;43.004;23.052;2022-11-21T10:30:03;92928.38;;;5.75;100.00
8334;BME280;4204;43.004;23.052;2022-11-21T10:32:36;92921.28;;;5.84;100.00
8334;BME280;4204;43.004;23.052;2022-11-21T10:35:13;92938.88;;;5.97;100.00
8334;BME280;4204;43.004;23.052;2022-11-21T10:37:45;92940.22;;;5.86;100.00
8334;BME280;4204;43.004;23.052;2022-11-21T10:40:31;92938.69;;;5.85;100.00
8334;BME280;4204;43.004;23.052;2022-11-21T10:43:03;92937.59;;;5.86;100.00
8334;BME280;4204;43.004;23.052;2022-11-21T10:45:47;92933.88;;;5.87;100.00
8334;BME280;4204;43.004;23.052;2022-11-21T10:48:16;92930.97;;;5.97;100.00
8334;BME280;4204;43.004;23.052;2022-11-21T10:51:06;92933.97;;;5.82;100.00
8334;BME280;4204;43.004;23.052;2022-11-21T10:53:36;92925.44;;;5.77;100.00
8334;BME280;4204;43.004;23.052;2022-11-21T10:56:22;92938.06;;;5.88;100.00
8334;BME280;4204;43.004;23.052;2022-11-21T10:58:53;92931.41;;;5.91;100.00
8334;BME280;4204;43.004;23.052;2022-11-21T11:01:23;92922.22;;;5.88;100.00
8334;BME280;4204;43.004;23.052;2022-11-21T11:04:17;92934.88;;;5.78;100.00
8334;BME280;4204;43.004;23.052;2022-11-21T11:06:46;92930.63;;;5.59;100.00
8334;BME280;4204;43.004;23.052;2022-11-21T11:09:28;92940.44;;;5.67;100.00
8334;BME280;4204;43.004;23.052;2022-11-21T11:12:22;92942.44;;;5.62;100.00
8334;BME280;4204;43.004;23.052;2022-11-21T11:14:51;92932.47;;;5.59;100.00
8334;BME280;4204;43.004;23.052;2022-11-21T11:17:28;92927.16;;;5.50;100.00
8334;BME280;4204;43.004;23.052;2022-11-21T11:20:04;92934.41;;;5.45;100.00
8334;BME280;4204;43.004;23.052;2022-11-21T11:22:32;92922.13;;;5.40;100.00
8334;BME280;4204;43.004;23.052;2022-11-21T11:25:03;92920.16;;;5.46;100.00
8334;BME280;4204;43.004;23.052;2022-11-21T11:27:31;92924.78;;;5.40;100.00
8334;BME280;4204;43.004;23.052;2022-11-21T11:30:04;92908.66;;;5.42;100.00
8334;BME280;4204;43.004;23.052;2022-11-21T11:32:38;92913.16;;;5.41;100.00
8334;BME280;4204;43.004;23.052;2022-11-21T11:35:20;92907.56;;;5.43;100.00
8334;BME280;4204;43.004;23.052;2022-11-21T11:37:57;92919.84;;;5.47;100.00
8334;BME280;4204;43.004;23.052;2022-11-21T11:40:30;92935.84;;;5.51;100.00
8334;BME280;4204;43.004;23.052;2022-11-21T11:43:27;92932.19;;;5.69;100.00
8334;BME280;4204;43.004;23.052;2022-11-21T11:46:32;92941.56;;;5.75;100.00
8334;BME280;4204;43.004;23.052;2022-11-21T11:49:31;92926.34;;;5.72;100.00
8334;BME280;4204;43.004;23.052;2022-11-21T11:52:29;92929.28;;;5.70;100.00
8334;BME280;4204;43.004;23.052;2022-11-21T11:55:02;92935.47;;;5.66;100.00
8334;BME280;4204;43.004;23.052;2022-11-21T11:57:33;92935.94;;;5.68;100.00
8334;BME280;4204;43.004;23.052;2022-11-21T12:00:12;92929.56;;;5.69;100.00
8334;BME280;4204;43.004;23.052;2022-11-21T12:02:52;92934.88;;;5.78;100.00
8334;BME280;4204;43.004;23.052;2022-11-21T12:05:25;92934.47;;;5.84;100.00
8334;BME280;4204;43.004;23.052;2022-11-21T12:08:02;92933.34;;;5.77;100.00
8334;BME280;4204;43.004;23.052;2022-11-21T12:10:38;92931.13;;;5.70;100.00
8334;BME280;4204;43.004;23.052;2022-11-21T12:13:28;92931.50;;;5.77;100.00
8334;BME280;4204;43.004;23.052;2022-11-21T12:16:01;92936.09;;;5.71;100.00
8334;BME280;4204;43.004;23.052;2022-11-21T12:18:34;92939.25;;;5.82;100.00
8334;BME280;4204;43.004;23.052;2022-11-21T12:21:07;92930.28;;;5.83;100.00
8334;BME280;4204;43.004;23.052;2022-11-21T12:23:45;92932.91;;;5.83;100.00
8334;BME280;4204;43.004;23.052;2022-11-21T12:26:23;92947.00;;;5.79;100.00
8334;BME280;4204;43.004;23.052;2022-11-21T12:29:04;92943.53;;;5.69;100.00
8334;BME280;4204;43.004;23.052;2022-11-21T12:31:40;92947.13;;;5.73;100.00
8334;BME280;4204;43.004;23.052;2022-11-21T12:34:28;92956.25;;;5.98;100.00
8334;BME280;4204;43.004;23.052;2022-11-21T12:37:03;92958.16;;;6.06;100.00
8334;BME280;4204;43.004;23.052;2022-11-21T12:39:52;92961.09;;;6.05;100.00
8334;BME280;4204;43.004;23.052;2022-11-21T12:42:27;92962.97;;;6.04;100.00
8334;BME280;4204;43.004;23.052;2022-11-21T12:45:26;92950.59;;;5.83;100.00
8334;BME280;4204;43.004;23.052;2022-11-21T12:48:14;92956.19;;;5.81;100.00
8334;BME280;4204;43.004;23.052;2022-11-21T12:51:16;92964.28;;;5.85;100.00
8334;BME280;4204;43.004;23.052;2022-11-21T12:54:15;92952.59;;;5.77;100.00
8334;BME280;4204;43.004;23.052;2022-11-21T12:57:06;92948.75;;;5.83;100.00
8334;BME280;4204;43.004;23.052;2022-11-21T12:59:42;92957.84;;;5.99;100.00
8334;BME280;4204;43.004;23.052;2022-11-21T13:02:29;92968.81;;;5.93;100.00
8334;BME280;4204;43.004;23.052;2022-11-21T13:04:59;92971.50;;;6.01;100.00
8334;BME280;4204;43.004;23.052;2022-11-21T13:07:30;92971.78;;;5.91;100.00
8334;BME280;4204;43.004;23.052;2022-11-21T13:10:00;92969.44;;;5.90;100.00
8334;BME280;4204;43.004;23.052;2022-11-21T13:12:37;92962.47;;;6.02;100.00
8334;BME280;4204;43.004;23.052;2022-11-21T13:15:17;92967.22;;;6.14;100.00
8334;BME280;4204;43.004;23.052;2022-11-21T13:17:50;92971.66;;;6.05;100.00
8334;BME280;4204;43.004;23.052;2022-11-21T13:20:23;92960.53;;;6.16;100.00
8334;BME280;4204;43.004;23.052;2022-11-21T13:22:57;92962.56;;;6.19;100.00
8334;BME280;4204;43.004;23.052;2022-11-21T13:25:41;92961.31;;;6.25;100.00
8334;BME280;4204;43.004;23.052;2022-11-21T13:28:32;92960.53;;;6.25;100.00
8334;BME280;4204;43.004;23.052;2022-11-21T13:31:02;92959.59;;;6.21;100.00
8334;BME280;4204;43.004;23.052;2022-11-21T13:33:46;92968.94;;;6.18;100.00